Couch, Missouri
Current Conditions -  °F | °C
As of 12:21 PM on Wednesday 26 Nov 2014 (Local Time) from KUNO Reporting Station
Broken Clouds Broken Clouds  
Wind Chill:   Ceiling: 1100
Heat Index:   Visibility: 10mi
Dew Point:   Wind: 8mph
Humidity: 86%   Direction: 290°WNW
Pressure: 29.95"   Gusts: NA
Location:  36.61°N, 91.38°W
Report Text: KUNO 261821Z AUTO 29007KT 10SM SCT006 BKN011 BKN017 04/02 A2995 RMK AO2 T00390017
Loading
Personal Weather Stations






























Interactive Weather Map New forecast layout! Learn more

10-Day Weather Forecast

Advertisements
Track Severe Weather on mobile